Time;durP1;ratioP1;P1;durP2;ratioP2;P2;SDS_P1;SDS_P2;PMS_P1;PMS_P2;Temp;Humidity;BMP_temperature;BMP_pressure;BME280_temperature;BME280_humidity;BME280_pressure;Samples;Min_cycle;Max_cycle;Signal;HPM_P1;HPM_P2
2021/05/11 00:01:56;;;;;;;;;;;;;;;10.05;75.45;93402.47;5107818;28;19919;-81
2021/05/11 00:04:22;;;;;;;;;;;;;;;10.08;75.63;93402.06;5110385;28;19943;-82
2021/05/11 00:06:48;;;;;;;;;;;;;;;10.09;75.24;93406.22;5106334;28;20391;-81
2021/05/11 00:09:14;;;;;;;;;;;;;;;10.07;74.88;93406.41;5107062;28;20287;-81
2021/05/11 00:11:40;;;;;;;;;;;;;;;9.96;75.55;93401.91;5110738;28;19919;-80
2021/05/11 00:14:08;;;;;;;;;;;;;;;9.91;75.90;93399.94;5110295;28;19965;-80
2021/05/11 00:16:35;;;;;;;;;;;;;;;9.88;76.16;93405.47;5110689;28;20026;-80
2021/05/11 00:19:04;;;;;;;;;;;;;;;9.79;76.33;93406.66;5110794;28;19924;-80
2021/05/11 00:21:30;;;;;;;;;;;;;;;9.73;77.28;93406.47;5110844;28;19920;-80
2021/05/11 00:23:56;;;;;;;;;;;;;;;9.66;78.02;93400.56;5110298;28;20379;-80
2021/05/11 00:26:22;;;;;;;;;;;;;;;9.61;78.42;93398.59;5110519;28;19924;-81
2021/05/11 00:28:48;;;;;;;;;;;;;;;9.57;78.21;93397.41;5110323;28;19920;-80
2021/05/11 00:31:15;;;;;;;;;;;;;;;9.56;78.75;93402.72;5108914;28;19920;-80
2021/05/11 00:33:41;;;;;;;;;;;;;;;9.48;79.07;93396.03;5110510;28;19920;-82
2021/05/11 00:36:07;;;;;;;;;;;;;;;9.45;79.29;93399.75;5110246;28;19920;-80
2021/05/11 00:38:33;;;;;;;;;;;;;;;9.40;79.78;93398.78;5108892;28;19927;-80
2021/05/11 00:40:59;;;;;;;;;;;;;;;9.35;80.00;93395.03;5110249;28;20931;-81
2021/05/11 00:43:26;;;;;;;;;;;;;;;9.31;80.32;93398.97;5110280;28;19923;-82
2021/05/11 00:45:52;;;;;;;;;;;;;;;9.24;80.64;93395.63;5110356;28;19919;-81
2021/05/11 00:48:18;;;;;;;;;;;;;;;9.26;79.53;93392.88;5110311;28;20029;-81
2021/05/11 00:50:45;;;;;;;;;;;;;;;9.25;78.98;93386.19;5110130;28;20346;-81
2021/05/11 00:53:11;;;;;;;;;;;;;;;9.20;79.28;93389.31;5109970;28;19923;-81
2021/05/11 00:55:38;;;;;;;;;;;;;;;9.15;79.76;93387.34;5110146;28;19924;-81
2021/05/11 00:58:05;;;;;;;;;;;;;;;9.08;80.17;93384.75;5110225;28;19924;-81
2021/05/11 01:00:31;;;;;;;;;;;;;;;9.08;80.29;93384.00;5110041;28;19986;-80
2021/05/11 01:02:57;;;;;;;;;;;;;;;8.99;80.59;93388.53;5110006;28;20024;-80
2021/05/11 01:05:24;;;;;;;;;;;;;;;9.01;80.77;93376.28;5109981;28;19953;-80
2021/05/11 01:07:50;;;;;;;;;;;;;;;9.06;80.37;93375.69;5113979;28;20290;-81
2021/05/11 01:10:16;;;;;;;;;;;;;;;9.01;80.46;93372.94;5113994;28;19923;-80
2021/05/11 01:12:42;;;;;;;;;;;;;;;8.99;80.63;93378.28;5105832;28;19973;-81
2021/05/11 01:15:09;;;;;;;;;;;;;;;9.05;80.10;93377.50;5114073;28;19927;-80
2021/05/11 01:17:37;;;;;;;;;;;;;;;9.11;79.65;93377.69;5113815;28;19924;-80
2021/05/11 01:20:05;;;;;;;;;;;;;;;9.10;79.76;93384.56;5113921;28;19923;-80
2021/05/11 01:22:45;;;;;;;;;;;;;;;9.12;79.88;93382.59;5113682;28;19924;-79
2021/05/11 01:25:16;;;;;;;;;;;;;;;9.11;79.77;93385.38;5113695;28;19927;-79
2021/05/11 01:27:55;;;;;;;;;;;;;;;9.01;80.32;93381.41;5105208;28;20424;-80
2021/05/11 01:44:11;;;;;;;;;;;;;;;8.74;80.10;93371.13;5086976;28;20393;-79
2021/05/11 01:49:53;;;;;;;;;;;;;;;8.54;80.28;93371.88;5050244;28;20457;-79
2021/05/11 01:52:29;;;;;;;;;;;;;;;8.51;80.21;93366.28;5050180;28;19932;-79
2021/05/11 02:24:51;;;;;;;;;;;;;;;8.26;83.71;93349.69;5133334;27;19953;-78
2021/05/11 02:27:18;;;;;;;;;;;;;;;8.22;83.97;93351.06;5132989;27;20386;-78
2021/05/11 02:29:44;;;;;;;;;;;;;;;8.10;84.91;93347.47;5133153;27;19926;-79
2021/05/11 02:32:12;;;;;;;;;;;;;;;8.06;85.43;93346.28;5132959;27;19923;-80
2021/05/11 02:34:38;;;;;;;;;;;;;;;8.06;85.16;93349.59;5127211;27;19927;-79
2021/05/11 02:37:04;;;;;;;;;;;;;;;8.11;84.65;93352.38;5112552;28;19931;-79
2021/05/11 02:39:30;;;;;;;;;;;;;;;8.16;84.02;93349.25;5112140;28;19920;-79
2021/05/11 02:41:56;;;;;;;;;;;;;;;8.19;83.41;93348.88;5112223;28;19919;-79
2021/05/11 02:44:23;;;;;;;;;;;;;;;8.09;83.02;93351.00;5112757;28;19930;-80
2021/05/11 02:46:49;;;;;;;;;;;;;;;7.98;83.63;93342.09;5112210;28;19920;-80
2021/05/11 02:49:18;;;;;;;;;;;;;;;7.87;84.12;93344.22;5112178;28;19920;-78
2021/05/11 02:51:44;;;;;;;;;;;;;;;7.82;84.53;93346.53;5111939;28;19930;-81
2021/05/11 02:54:10;;;;;;;;;;;;;;;7.74;85.46;93344.94;5112217;28;19953;-80
2021/05/11 02:56:36;;;;;;;;;;;;;;;7.68;85.81;93339.78;5112172;28;19973;-81
2021/05/11 02:59:02;;;;;;;;;;;;;;;7.59;86.33;93339.94;5111884;28;20357;-81
2021/05/11 03:01:29;;;;;;;;;;;;;;;7.60;86.84;93343.28;5111826;28;19972;-81
2021/05/11 03:03:55;;;;;;;;;;;;;;;7.61;86.41;93344.88;5111727;28;19965;-81
2021/05/11 03:06:21;;;;;;;;;;;;;;;7.64;86.21;93353.91;5111926;28;19923;-80
2021/05/11 03:08:47;;;;;;;;;;;;;;;7.51;86.67;93352.88;5091153;28;20399;-81
2021/05/11 03:11:13;;;;;;;;;;;;;;;7.46;87.80;93350.84;5091510;28;19920;-82
2021/05/11 03:13:39;;;;;;;;;;;;;;;7.52;87.26;93349.34;5091471;28;19923;-81
2021/05/11 03:16:05;;;;;;;;;;;;;;;7.48;87.84;93341.25;5090952;28;19924;-80
2021/05/11 03:18:32;;;;;;;;;;;;;;;7.47;88.73;93342.22;5091347;28;19928;-81
2021/05/11 03:20:58;;;;;;;;;;;;;;;7.53;88.44;93347.53;5090971;28;19935;-81
2021/05/11 03:23:25;;;;;;;;;;;;;;;7.60;86.94;93348.41;5091406;28;19927;-80
2021/05/11 03:25:51;;;;;;;;;;;;;;;7.69;85.74;93346.47;5090944;28;19920;-80
2021/05/11 03:28:17;;;;;;;;;;;;;;;7.73;85.98;93342.59;5091136;28;19931;-80
2021/05/11 03:30:43;;;;;;;;;;;;;;;7.75;86.23;93343.16;5089949;28;20299;-80
2021/05/11 03:33:09;;;;;;;;;;;;;;;7.70;87.21;93340.38;5090787;28;19919;-80
2021/05/11 03:35:37;;;;;;;;;;;;;;;7.62;87.84;93341.31;5091159;28;20310;-80
2021/05/11 03:38:04;;;;;;;;;;;;;;;7.60;88.33;93341.50;5091030;28;19927;-81
2021/05/11 03:40:30;;;;;;;;;;;;;;;7.61;89.01;93329.53;5087341;28;19952;-80
2021/05/11 03:43:00;;;;;;;;;;;;;;;7.61;89.09;93334.63;5070339;28;19932;-81
2021/05/11 03:45:32;;;;;;;;;;;;;;;7.65;88.58;93332.50;5070173;28;20406;-81
2021/05/11 03:47:58;;;;;;;;;;;;;;;7.73;87.56;93337.47;5070222;28;19986;-82
2021/05/11 03:50:24;;;;;;;;;;;;;;;7.80;86.81;93335.72;5070139;28;19932;-82
2021/05/11 03:52:51;;;;;;;;;;;;;;;7.83;86.53;93330.22;5085215;28;19924;-80
2021/05/11 03:55:17;;;;;;;;;;;;;;;7.86;85.94;93334.97;5090369;28;19965;-81
2021/05/11 03:57:43;;;;;;;;;;;;;;;7.93;86.04;93334.19;5090279;28;19930;-82
2021/05/11 04:00:09;;;;;;;;;;;;;;;7.96;85.08;93337.16;5090432;28;19920;-81
2021/05/11 04:02:37;;;;;;;;;;;;;;;7.99;84.67;93341.91;5090291;28;19920;-80
2021/05/11 04:05:07;;;;;;;;;;;;;;;8.05;84.99;93344.69;5090360;28;19920;-81
2021/05/11 04:07:33;;;;;;;;;;;;;;;8.12;85.48;93342.94;5089673;28;19930;-81
2021/05/11 04:10:02;;;;;;;;;;;;;;;8.21;85.29;93343.56;5090456;28;19927;-81
2021/05/11 04:17:54;;;;;;;;;;;;;;;8.35;83.84;93352.88;5055959;28;19920;-81
2021/05/11 04:20:20;;;;;;;;;;;;;;;8.35;84.94;93344.41;5090292;28;19924;-81
2021/05/11 04:22:46;;;;;;;;;;;;;;;8.42;84.39;93340.09;5090326;28;19930;-80
2021/05/11 04:25:15;;;;;;;;;;;;;;;8.52;84.47;93337.22;5089958;28;19920;-81
2021/05/11 04:27:41;;;;;;;;;;;;;;;8.57;86.44;93339.97;5090153;28;20038;-81
2021/05/11 04:30:08;;;;;;;;;;;;;;;8.69;84.60;93335.84;5089981;28;19920;-80
2021/05/11 04:32:34;;;;;;;;;;;;;;;8.86;83.83;93339.81;5090109;28;19920;-80
2021/05/11 04:35:00;;;;;;;;;;;;;;;8.93;83.44;93341.41;5089776;28;20406;-80
2021/05/11 04:37:26;;;;;;;;;;;;;;;9.07;83.96;93326.81;5089139;28;19931;-81
2021/05/11 04:39:52;;;;;;;;;;;;;;;9.17;84.32;93330.78;5090155;28;19927;-81
2021/05/11 04:42:19;;;;;;;;;;;;;;;9.28;83.54;93329.38;5108051;28;19920;-80
2021/05/11 04:44:46;;;;;;;;;;;;;;;9.43;82.13;93332.53;5109422;28;19930;-80
2021/05/11 04:47:14;;;;;;;;;;;;;;;9.59;82.44;93330.53;5109995;28;19927;-80
2021/05/11 04:49:41;;;;;;;;;;;;;;;9.76;81.75;93328.31;5110410;28;20346;-80
2021/05/11 04:52:07;;;;;;;;;;;;;;;9.88;80.97;93324.16;5110102;28;19920;-81
2021/05/11 04:54:33;;;;;;;;;;;;;;;10.09;79.95;93324.09;5110249;28;19920;-81
2021/05/11 04:56:59;;;;;;;;;;;;;;;10.33;78.34;93327.75;5110013;28;19927;-81
2021/05/11 04:59:26;;;;;;;;;;;;;;;10.51;78.88;93327.06;5109853;28;19923;-80
2021/05/11 05:01:54;;;;;;;;;;;;;;;10.71;78.27;93330.53;5110178;28;19920;-80
2021/05/11 05:04:20;;;;;;;;;;;;;;;10.65;79.34;93324.44;5109965;28;19920;-80
2021/05/11 05:06:46;;;;;;;;;;;;;;;10.80;77.96;93327.47;5109661;28;19924;-80
2021/05/11 05:09:12;;;;;;;;;;;;;;;10.75;79.33;93326.53;5109971;28;19919;-80
2021/05/11 05:11:41;;;;;;;;;;;;;;;11.04;76.65;93330.31;5110110;28;19927;-80
2021/05/11 05:14:07;;;;;;;;;;;;;;;10.94;78.80;93340.25;5110008;28;19926;-80
2021/05/11 05:16:34;;;;;;;;;;;;;;;11.02;80.25;93329.72;5109760;28;19924;-81
2021/05/11 05:19:01;;;;;;;;;;;;;;;11.17;78.92;93336.34;5109890;28;19924;-81
2021/05/11 05:21:27;;;;;;;;;;;;;;;11.09;78.50;93333.03;5109907;28;20659;-80
2021/05/11 05:24:01;;;;;;;;;;;;;;;11.05;79.39;93331.88;5110346;28;20275;-80
2021/05/11 05:26:29;;;;;;;;;;;;;;;11.26;78.43;93332.50;5109636;28;20412;-80
2021/05/11 05:28:56;;;;;;;;;;;;;;;11.34;77.92;93329.66;5109974;28;19970;-80
2021/05/11 05:31:22;;;;;;;;;;;;;;;11.68;77.06;93334.53;5109951;28;20351;-80
2021/05/11 05:33:49;;;;;;;;;;;;;;;11.92;75.68;93321.00;5109860;28;20310;-80
2021/05/11 05:36:16;;;;;;;;;;;;;;;12.17;73.86;93323.53;5109867;28;20035;-80
2021/05/11 05:38:42;;;;;;;;;;;;;;;12.28;73.53;93330.50;5101239;28;19964;-80
2021/05/11 05:41:10;;;;;;;;;;;;;;;12.49;71.70;93320.75;5109438;28;19960;-80
2021/05/11 05:43:36;;;;;;;;;;;;;;;12.82;70.81;93316.94;5109622;28;19974;-81
2021/05/11 05:46:02;;;;;;;;;;;;;;;13.16;69.57;93320.81;5109853;28;19923;-80
2021/05/11 05:48:28;;;;;;;;;;;;;;;13.36;68.20;93310.16;5109551;28;19926;-80
2021/05/11 05:50:58;;;;;;;;;;;;;;;13.58;67.84;93309.63;5109800;28;19920;-80
2021/05/11 05:53:27;;;;;;;;;;;;;;;13.84;66.44;93308.38;5111414;28;19923;-81
2021/05/11 05:55:53;;;;;;;;;;;;;;;14.13;65.37;93311.00;5113118;28;19926;-81
2021/05/11 05:58:19;;;;;;;;;;;;;;;14.39;64.27;93311.50;5113080;28;19920;-81
2021/05/11 06:00:46;;;;;;;;;;;;;;;14.69;63.06;93300.09;5113418;28;19923;-81
2021/05/11 06:03:37;;;;;;;;;;;;;;;14.94;61.52;93295.63;5113660;28;19961;-81
2021/05/11 06:06:05;;;;;;;;;;;;;;;15.33;60.14;93293.09;5113216;28;19942;-81
2021/05/11 06:08:31;;;;;;;;;;;;;;;15.29;58.39;93299.00;5113048;28;19930;-81
2021/05/11 06:11:00;;;;;;;;;;;;;;;15.59;58.46;93298.66;5112839;28;19926;-81
2021/05/11 06:13:31;;;;;;;;;;;;;;;15.84;54.87;93296.66;5112833;28;19919;-82
2021/05/11 06:18:41;;;;;;;;;;;;;;;16.62;53.96;93289.75;5112831;28;19942;-82
2021/05/11 06:21:08;;;;;;;;;;;;;;;16.81;51.63;93287.59;5112598;28;19923;-82
2021/05/11 06:23:34;;;;;;;;;;;;;;;17.18;51.88;93284.25;5112578;28;20418;-81
2021/05/11 06:26:00;;;;;;;;;;;;;;;17.62;52.10;93275.47;5112667;28;19927;-82
2021/05/11 06:28:26;;;;;;;;;;;;;;;18.01;50.92;93278.75;5112523;28;19924;-82
2021/05/11 06:30:52;;;;;;;;;;;;;;;18.32;48.92;93285.91;5112419;28;19927;-83
2021/05/11 06:33:18;;;;;;;;;;;;;;;18.35;47.21;93280.97;5112597;28;19923;-81
2021/05/11 06:35:45;;;;;;;;;;;;;;;18.59;46.77;93283.09;5112499;28;20018;-82
2021/05/11 06:38:12;;;;;;;;;;;;;;;18.68;46.01;93278.97;5112542;28;19942;-82
2021/05/11 06:40:39;;;;;;;;;;;;;;;19.23;46.83;93283.69;5112171;28;19920;-82
2021/05/11 06:43:05;;;;;;;;;;;;;;;19.43;44.67;93289.13;5112048;28;19934;-82
2021/05/11 06:46:05;;;;;;;;;;;;;;;19.12;44.78;93287.31;5112046;28;19934;-82
2021/05/11 06:48:32;;;;;;;;;;;;;;;19.71;45.20;93279.94;5111604;28;19924;-82
2021/05/11 06:53:44;;;;;;;;;;;;;;;19.71;43.37;93281.75;5111966;28;20386;-82
2021/05/11 06:56:12;;;;;;;;;;;;;;;19.87;42.99;93278.06;5112377;28;19920;-84
2021/05/11 06:58:38;;;;;;;;;;;;;;;20.21;43.74;93275.88;5111908;28;20002;-84
2021/05/11 07:01:04;;;;;;;;;;;;;;;20.65;43.35;93274.34;5112086;28;19919;-83
2021/05/11 07:03:30;;;;;;;;;;;;;;;20.84;42.70;93269.28;5112020;28;19923;-83
2021/05/11 07:05:59;;;;;;;;;;;;;;;21.41;41.05;93266.22;5111962;28;19919;-84
2021/05/11 07:08:29;;;;;;;;;;;;;;;21.44;40.63;93262.28;5111580;28;20058;-84
2021/05/11 07:10:58;;;;;;;;;;;;;;;21.43;39.15;93265.94;5112166;28;19924;-84
2021/05/11 07:13:24;;;;;;;;;;;;;;;21.40;39.72;93261.25;5111963;28;19926;-84
2021/05/11 07:15:50;;;;;;;;;;;;;;;21.60;39.38;93255.03;5107317;28;19920;-83
2021/05/11 07:18:17;;;;;;;;;;;;;;;21.80;38.76;93251.47;5109489;28;19924;-83
2021/05/11 07:20:45;;;;;;;;;;;;;;;21.76;37.41;93248.63;5111469;28;19964;-83
2021/05/11 07:23:15;;;;;;;;;;;;;;;21.65;37.59;93244.53;5111176;28;19920;-84
2021/05/11 07:25:47;;;;;;;;;;;;;;;22.02;35.44;93247.56;5111624;28;19926;-84
2021/05/11 07:31:10;;;;;;;;;;;;;;;22.45;37.17;93249.34;5111056;28;19920;-83
2021/05/11 07:33:39;;;;;;;;;;;;;;;22.84;36.36;93242.28;5111094;28;19926;-83
2021/05/11 07:36:06;;;;;;;;;;;;;;;23.01;36.82;93238.38;5111623;28;20058;-84
2021/05/11 07:38:32;;;;;;;;;;;;;;;23.40;35.84;93247.69;5111344;28;19923;-83
2021/05/11 07:40:58;;;;;;;;;;;;;;;23.49;34.22;93245.19;5110911;28;19919;-83
2021/05/11 07:43:26;;;;;;;;;;;;;;;23.80;32.52;93236.75;5111147;28;20294;-85
2021/05/11 07:48:57;;;;;;;;;;;;;;;23.97;32.54;93238.00;5106920;28;20302;-85
2021/05/11 08:05:18;;;;;;;;;;;;;;;24.08;34.73;93226.25;5092404;28;20383;-84
2021/05/11 08:10:35;;;;;;;;;;;;;;;24.92;33.86;93218.16;5110415;28;20326;-84
2021/05/11 08:15:51;;;;;;;;;;;;;;;24.36;31.92;93225.41;5109689;28;19927;-84
2021/05/11 08:18:24;;;;;;;;;;;;;;;24.46;32.33;93211.28;5110171;28;19925;-85
2021/05/11 08:29:08;;;;;;;;;;;;;;;24.96;33.17;93210.44;5110067;28;20706;-85
2021/05/11 08:31:35;;;;;;;;;;;;;;;25.24;31.50;93202.38;5110266;28;20783;-85
2021/05/11 08:34:01;;;;;;;;;;;;;;;25.07;31.14;93198.59;5109955;28;19920;-85
2021/05/11 08:36:27;;;;;;;;;;;;;;;24.64;32.59;93204.31;5109941;28;19924;-85
2021/05/11 08:38:56;;;;;;;;;;;;;;;24.45;33.32;93205.28;5110298;28;19920;-85
2021/05/11 08:41:22;;;;;;;;;;;;;;;25.04;32.29;93201.81;5110100;28;19927;-85
2021/05/11 08:43:48;;;;;;;;;;;;;;;25.22;32.46;93199.28;5109924;28;19923;-85
2021/05/11 08:46:15;;;;;;;;;;;;;;;25.41;32.98;93199.03;5109894;28;19919;-86
2021/05/11 08:48:42;;;;;;;;;;;;;;;26.04;32.66;93182.38;5109866;28;19920;-86
2021/05/11 08:51:11;;;;;;;;;;;;;;;26.32;29.90;93190.03;5109842;28;19955;-85
2021/05/11 08:54:09;;;;;;;;;;;;;;;26.55;28.86;93190.66;5110002;28;19924;-87
2021/05/11 09:05:03;;;;;;;;;;;;;;;26.38;31.06;93178.25;5109941;28;19966;-86
2021/05/11 09:24:02;;;;;;;;;;;;;;;27.87;29.02;93163.09;5109835;28;19942;-86
2021/05/11 09:26:38;;;;;;;;;;;;;;;28.17;29.19;93154.38;5109856;28;20394;-86
2021/05/11 09:29:09;;;;;;;;;;;;;;;28.52;29.06;93153.34;5110112;28;19988;-85
2021/05/11 09:31:46;;;;;;;;;;;;;;;28.59;29.03;93147.56;5107781;28;19973;-84
2021/05/11 09:34:21;;;;;;;;;;;;;;;28.47;28.44;93154.31;5095298;28;20031;-83
2021/05/11 09:45:26;;;;;;;;;;;;;;;27.67;28.64;93148.03;5113846;28;19927;-83
2021/05/11 09:51:23;;;;;;;;;;;;;;;27.66;28.86;93147.25;5069915;28;19924;-86
2021/05/11 09:56:50;;;;;;;;;;;;;;;27.88;29.57;93132.22;5103610;28;19962;-84
2021/05/11 09:59:44;;;;;;;;;;;;;;;28.21;29.68;93130.72;5112962;28;20444;-84
2021/05/11 10:39:15;;;;;;;;;;;;;;;26.96;24.30;93111.38;5068727;28;19924;-90
2021/05/11 10:41:54;;;;;;;;;;;;;;;26.93;24.15;93101.47;5108416;28;20305;-84
2021/05/11 10:47:14;;;;;;;;;;;;;;;27.14;22.90;93106.03;5111844;28;19920;-86
2021/05/11 10:49:42;;;;;;;;;;;;;;;26.67;23.61;93112.84;5111878;28;20603;-85
2021/05/11 10:52:11;;;;;;;;;;;;;;;26.97;24.90;93101.63;5111672;28;19990;-85
2021/05/11 10:54:38;;;;;;;;;;;;;;;27.40;23.61;93100.63;5105595;28;19927;-86
2021/05/11 10:57:19;;;;;;;;;;;;;;;26.77;23.10;93096.69;5111683;28;20006;-87
2021/05/11 11:00:10;;;;;;;;;;;;;;;27.32;22.18;93096.97;5111155;28;19935;-90
2021/05/11 11:02:44;;;;;;;;;;;;;;;27.39;22.41;93098.34;5091742;28;19924;-87
2021/05/11 11:05:11;;;;;;;;;;;;;;;27.03;22.81;93089.81;5091638;28;19942;-87
2021/05/11 11:07:38;;;;;;;;;;;;;;;27.13;22.24;93086.06;5091162;28;20413;-86
2021/05/11 11:10:07;;;;;;;;;;;;;;;27.81;23.96;93072.03;5091299;28;19924;-88
2021/05/11 11:12:37;;;;;;;;;;;;;;;27.47;21.19;93081.69;5094992;28;19923;-88
2021/05/11 11:15:06;;;;;;;;;;;;;;;27.37;23.08;93077.56;5111505;28;19965;-87
2021/05/11 11:17:40;;;;;;;;;;;;;;;27.08;22.05;93074.59;5111496;28;20401;-85
2021/05/11 11:20:09;;;;;;;;;;;;;;;27.30;23.31;93072.78;5111520;28;19980;-87
2021/05/11 11:25:21;;;;;;;;;;;;;;;26.95;22.41;93075.59;5085147;28;20412;-87
2021/05/11 11:27:48;;;;;;;;;;;;;;;26.83;22.98;93075.44;5111290;28;20006;-87
2021/05/11 11:30:16;;;;;;;;;;;;;;;27.24;23.41;93073.28;5114013;28;20278;-89
2021/05/11 11:32:42;;;;;;;;;;;;;;;27.68;23.98;93065.91;5111174;28;19920;-88
2021/05/11 11:35:09;;;;;;;;;;;;;;;27.89;23.82;93070.41;5111246;28;19923;-89
2021/05/11 11:37:36;;;;;;;;;;;;;;;27.59;23.68;93065.19;5110849;28;20443;-88
2021/05/11 11:40:04;;;;;;;;;;;;;;;27.70;23.89;93063.72;5111174;28;19920;-89
2021/05/11 11:42:30;;;;;;;;;;;;;;;28.44;23.98;93056.44;5111218;28;20006;-89
2021/05/11 11:44:59;;;;;;;;;;;;;;;28.22;23.21;93063.59;5110852;28;19920;-88
2021/05/11 11:47:27;;;;;;;;;;;;;;;27.86;23.34;93063.91;5110400;28;19930;-90
2021/05/11 11:49:56;;;;;;;;;;;;;;;27.62;23.52;93054.00;5110097;28;19920;-89
2021/05/11 11:52:28;;;;;;;;;;;;;;;27.19;24.77;93045.22;5110826;28;19924;-89
2021/05/11 11:55:22;;;;;;;;;;;;;;;27.73;24.79;93049.13;5111047;28;20302;-93
2021/05/11 11:57:54;;;;;;;;;;;;;;;27.51;24.16;93056.22;5110785;28;20371;-88
2021/05/11 12:00:24;;;;;;;;;;;;;;;27.74;24.25;93046.16;5110502;28;20329;-91
2021/05/11 12:03:01;;;;;;;;;;;;;;;27.35;25.80;93038.31;5110779;28;19919;-89
2021/05/11 12:05:31;;;;;;;;;;;;;;;27.49;24.91;93039.91;5110721;28;19930;-89
2021/05/11 12:08:19;;;;;;;;;;;;;;;27.34;24.32;93033.34;5110818;28;19924;-88
2021/05/11 12:10:46;;;;;;;;;;;;;;;27.38;25.30;93030.84;5111374;28;20341;-89
2021/05/11 12:13:14;;;;;;;;;;;;;;;27.96;25.03;93028.41;5111096;28;19926;-88
2021/05/11 12:15:40;;;;;;;;;;;;;;;28.19;24.42;93030.69;5110869;28;19969;-89
2021/05/11 12:18:14;;;;;;;;;;;;;;;27.90;25.33;93021.81;5109555;28;19923;-88
2021/05/11 12:20:41;;;;;;;;;;;;;;;27.97;24.52;93021.28;5109976;28;20287;-91
2021/05/11 12:23:14;;;;;;;;;;;;;;;27.71;25.05;93011.72;5110126;28;20061;-89
2021/05/11 12:25:40;;;;;;;;;;;;;;;28.10;23.47;93012.31;5110907;28;19920;-91
2021/05/11 12:28:06;;;;;;;;;;;;;;;28.43;23.70;93008.13;5109998;28;19924;-88
2021/05/11 12:30:38;;;;;;;;;;;;;;;28.46;23.55;93004.06;5109936;28;20401;-90
2021/05/11 12:33:05;;;;;;;;;;;;;;;28.07;24.14;93004.25;5110638;28;19920;-89
2021/05/11 12:35:33;;;;;;;;;;;;;;;27.60;25.29;92993.63;5106727;28;20007;-89
2021/05/11 12:38:04;;;;;;;;;;;;;;;27.70;26.04;92989.84;5111797;28;20404;-89
2021/05/11 12:41:02;;;;;;;;;;;;;;;27.45;25.18;92983.66;5109632;28;19975;-88
2021/05/11 12:43:38;;;;;;;;;;;;;;;27.81;24.66;92990.22;5111076;28;19920;-89
2021/05/11 12:46:13;;;;;;;;;;;;;;;28.44;24.49;92985.13;5111096;28;19920;-90
2021/05/11 12:48:48;;;;;;;;;;;;;;;28.22;24.83;92989.66;5110240;28;19919;-88
2021/05/11 12:51:25;;;;;;;;;;;;;;;27.95;23.40;92983.91;5110272;28;19971;-90
2021/05/11 12:53:51;;;;;;;;;;;;;;;27.40;24.54;92978.56;5109975;28;20282;-89
2021/05/11 12:56:29;;;;;;;;;;;;;;;27.06;24.83;92976.59;5109707;28;19920;-90
2021/05/11 12:59:03;;;;;;;;;;;;;;;27.12;25.10;92971.91;5109954;28;19962;-88
2021/05/11 13:01:35;;;;;;;;;;;;;;;26.84;25.30;92969.72;5109984;28;19926;-88
2021/05/11 13:26:42;;;;;;;;;;;;;;;26.57;26.48;92945.38;5114091;28;20019;-87
2021/05/11 13:29:18;;;;;;;;;;;;;;;26.90;27.41;92938.69;5113226;28;20026;-89
2021/05/11 13:31:50;;;;;;;;;;;;;;;26.55;27.55;92924.63;5113611;28;19920;-88
2021/05/11 13:34:21;;;;;;;;;;;;;;;26.68;27.42;92935.25;5113598;28;19920;-92
2021/05/11 13:36:48;;;;;;;;;;;;;;;26.82;27.34;92924.47;5113849;28;19935;-89
2021/05/11 13:39:14;;;;;;;;;;;;;;;26.71;27.06;92928.56;5114446;28;19931;-88
2021/05/11 13:41:47;;;;;;;;;;;;;;;26.73;27.83;92926.38;5114030;28;19920;-87
2021/05/11 13:44:18;;;;;;;;;;;;;;;26.66;27.57;92926.91;5114069;28;19919;-93
2021/05/11 13:46:45;;;;;;;;;;;;;;;26.65;27.17;92931.38;5120122;28;20401;-90
2021/05/11 13:49:19;;;;;;;;;;;;;;;26.60;26.77;92928.16;5113935;28;19924;-94
2021/05/11 13:51:45;;;;;;;;;;;;;;;26.52;27.37;92933.13;5113337;28;20298;-85
2021/05/11 13:54:13;;;;;;;;;;;;;;;26.14;28.27;92921.50;5113466;28;19919;-89
2021/05/11 14:04:45;;;;;;;;;;;;;;;26.00;28.43;92908.53;5110908;28;20310;-91
2021/05/11 14:07:11;;;;;;;;;;;;;;;26.04;28.33;92906.03;5113074;28;19930;-87
2021/05/11 14:09:37;;;;;;;;;;;;;;;26.20;27.96;92897.63;5113175;28;19941;-92
2021/05/11 14:12:04;;;;;;;;;;;;;;;26.07;27.56;92904.63;5112991;28;19926;-87
2021/05/11 14:14:31;;;;;;;;;;;;;;;25.78;28.09;92898.22;5111496;28;20444;-88
2021/05/11 14:16:57;;;;;;;;;;;;;;;25.44;28.43;92887.41;5112677;28;19926;-88
2021/05/11 14:19:25;;;;;;;;;;;;;;;25.66;27.91;92891.75;5112600;28;19971;-89
2021/05/11 14:21:51;;;;;;;;;;;;;;;25.60;28.49;92888.50;5112697;28;19920;-90
2021/05/11 14:24:17;;;;;;;;;;;;;;;25.85;27.97;92891.41;5112759;28;19924;-91
2021/05/11 14:26:47;;;;;;;;;;;;;;;25.60;27.39;92896.38;5112815;28;20455;-91
2021/05/11 14:29:13;;;;;;;;;;;;;;;25.66;28.29;92893.59;5112491;28;20481;-90
2021/05/11 14:31:40;;;;;;;;;;;;;;;25.57;28.18;92888.34;5112257;28;19977;-87
2021/05/11 14:34:08;;;;;;;;;;;;;;;25.98;27.65;92876.50;5112270;28;19930;-92
2021/05/11 14:36:39;;;;;;;;;;;;;;;25.77;27.60;92880.91;5112437;28;19923;-92
2021/05/11 14:39:06;;;;;;;;;;;;;;;25.74;27.98;92874.41;5112502;28;19923;-90
2021/05/11 14:41:35;;;;;;;;;;;;;;;25.74;28.22;92874.41;5112475;28;20350;-92
2021/05/11 14:44:06;;;;;;;;;;;;;;;25.44;28.01;92874.25;5114539;28;19923;-90
2021/05/11 14:46:32;;;;;;;;;;;;;;;25.66;27.76;92877.81;5113866;28;19934;-92
2021/05/11 14:48:59;;;;;;;;;;;;;;;25.44;28.43;92871.63;5112838;28;19920;-86
2021/05/11 14:51:25;;;;;;;;;;;;;;;25.63;28.65;92865.31;5112837;28;19920;-94
2021/05/11 14:53:53;;;;;;;;;;;;;;;25.35;28.13;92867.16;5115821;28;20425;-93
2021/05/11 14:56:48;;;;;;;;;;;;;;;25.46;28.16;92864.97;5115010;28;19965;-95
2021/05/11 14:59:14;;;;;;;;;;;;;;;25.64;27.81;92864.22;5117901;28;19941;-91
2021/05/11 15:01:48;;;;;;;;;;;;;;;25.41;28.39;92857.25;5116888;28;19939;-90
2021/05/11 15:04:15;;;;;;;;;;;;;;;25.17;28.57;92855.09;5113860;28;20278;-94
2021/05/11 15:06:59;;;;;;;;;;;;;;;25.25;28.54;92854.34;5117359;28;19924;-95
2021/05/11 15:09:26;;;;;;;;;;;;;;;24.95;28.81;92856.81;5114641;28;19923;-91
2021/05/11 15:12:21;;;;;;;;;;;;;;;25.05;29.45;92861.00;5116959;28;19923;-93
2021/05/11 15:14:49;;;;;;;;;;;;;;;24.93;29.86;92849.25;5115786;28;20010;-93
2021/05/11 15:22:52;;;;;;;;;;;;;;;25.21;29.30;92840.25;5076914;28;19920;-95
2021/05/11 15:25:18;;;;;;;;;;;;;;;24.93;28.35;92853.72;5071864;28;19921;-91
2021/05/11 15:27:57;;;;;;;;;;;;;;;25.13;29.07;92841.06;5116276;28;19920;-93
2021/05/11 15:30:30;;;;;;;;;;;;;;;24.96;29.09;92842.59;5113268;28;19920;-94
2021/05/11 15:39:24;;;;;;;;;;;;;;;25.24;27.50;92829.13;5000879;28;19922;-95
2021/05/11 15:41:55;;;;;;;;;;;;;;;25.20;27.94;92823.75;5032981;28;20036;-93
2021/05/11 15:44:36;;;;;;;;;;;;;;;24.78;28.21;92823.41;5116983;28;19920;-95
2021/05/11 15:47:02;;;;;;;;;;;;;;;24.38;28.60;92826.91;5113288;28;19942;-89
2021/05/11 15:50:00;;;;;;;;;;;;;;;24.47;28.60;92819.03;5116058;28;19928;-94
2021/05/11 15:52:50;;;;;;;;;;;;;;;24.27;28.80;92821.94;5116016;28;20456;-96
2021/05/11 15:55:19;;;;;;;;;;;;;;;24.00;28.69;92813.19;5113119;28;20329;-93
2021/05/11 15:57:56;;;;;;;;;;;;;;;23.93;29.12;92817.34;5113449;28;19926;-94
2021/05/11 16:00:22;;;;;;;;;;;;;;;23.88;28.87;92812.97;5113284;28;19989;-91
2021/05/11 16:02:49;;;;;;;;;;;;;;;23.66;29.12;92816.44;5114834;28;19919;-90
2021/05/11 16:05:19;;;;;;;;;;;;;;;23.59;29.57;92812.41;5113755;28;19955;-93
2021/05/11 16:07:45;;;;;;;;;;;;;;;23.36;29.55;92809.03;5102719;28;19955;-91
2021/05/11 16:10:12;;;;;;;;;;;;;;;23.43;29.96;92811.25;5126861;27;19924;-92
2021/05/11 16:12:38;;;;;;;;;;;;;;;23.44;29.22;92816.19;5112413;28;19973;-89
2021/05/11 16:15:26;;;;;;;;;;;;;;;23.24;29.76;92817.44;5111765;28;19924;-91
2021/05/11 16:17:57;;;;;;;;;;;;;;;23.30;30.12;92811.00;5116919;28;19919;-93
2021/05/11 16:20:23;;;;;;;;;;;;;;;23.15;29.98;92816.59;5116179;28;19919;-93
2021/05/11 16:22:55;;;;;;;;;;;;;;;23.20;30.44;92812.00;5114216;28;19924;-94
2021/05/11 16:25:27;;;;;;;;;;;;;;;23.08;29.92;92812.53;5114637;28;20398;-91
2021/05/11 16:31:03;;;;;;;;;;;;;;;22.91;30.57;92820.28;5110547;28;19942;-93
2021/05/11 16:33:29;;;;;;;;;;;;;;;22.97;30.31;92813.84;5110858;28;19927;-90
2021/05/11 16:35:55;;;;;;;;;;;;;;;22.85;30.69;92809.13;5111414;28;20026;-91
2021/05/11 16:38:21;;;;;;;;;;;;;;;22.51;31.19;92812.97;5110365;28;19923;-93
2021/05/11 16:40:49;;;;;;;;;;;;;;;22.44;31.60;92816.00;5105561;28;19926;-93